Rock, Michigan
Current Conditions -  °F | °C
As of 3:37 AM on Tuesday 21 Oct 2014 (Local Time) from KSAW Reporting Station
Moderate Rain Moderate Rain  
Wind Chill: 32°   Ceiling: 400
Heat Index: 39°   Visibility: 3mi
Dew Point: 38°   Wind: 12mph
Humidity: 95%   Direction: 10°N
Pressure: 30.09"   Gusts: 17mph
Location:  46.07°N, 87.17°W
Report Text: KSAW 210737Z AUTO 01010G15KT 3SM RA OVC004 04/03 A3009 RMK AO2 P0001 T00410033
Loading
Personal Weather Stations






























Interactive Weather Map
Tropical Storm Tracking
New forecast layout! Learn more

10-Day Weather Forecast

Advertisements
Track Severe Weather on mobile